7B2 weather

Northampton Airport
Northampton, Massachusetts, United States

Public forecast

Using degrees Fahrenheit for public forecast. Weather courtesy of forecast.io.

METAR (pilot weather report)

Closest report is Westover ARB/Metropolitan Airport, 8.7 nm (16.2 km) SSE. Retrieved 2019/07/18 01:43 UTC (0 seconds ago):

KCEF 180143Z 00000KT 10SM FEW070 BKN110 BKN200 23/23 A2990 RMK AO2A SLP129

TAF (pilot weather forecast)

Closest forecast is Westover ARB/Metropolitan Airport, 8.7 nm (16.2 km) SSE. Retrieved 2019/07/18 02:06 UTC (0 seconds ago):

TAF KCEF 180200Z 1802/1908 VRB04KT 9999 -SHRA FEW070 BKN110 BKN200 QNH2990INS BECMG 1805/1806 VRB04KT 8000 BR BKN010 BKN050 OVC150 QNH2990INS BECMG 1809/1810 04007KT 9999 NSW BKN007 OVC020 QNH2992INS BECMG 1814/1815 05010G15KT 9999 -SHRA BKN010 OVC030 QNH2992INS BECMG 1819/1820 05009KT 9999 NSW OVC015 QNH2992INS TX23/1818Z TN21/1810Z